createdAt,value
2018-01-18T20:59:10.966Z,75.90
2018-01-18T21:01:39.446Z,75.70
2018-01-18T21:04:07.880Z,75.40
2018-01-18T21:06:37.023Z,76.50
2018-01-18T21:09:05.513Z,76.50
2018-01-18T21:11:53.747Z,77.40
2018-01-18T21:14:22.331Z,78.80
2018-01-18T21:16:50.739Z,78.80
2018-01-18T21:19:20.913Z,79.50
2018-01-18T21:21:49.283Z,79.60
2018-01-18T21:24:17.798Z,80.00
2018-01-18T21:26:46.134Z,80.50
2018-01-18T21:29:22.230Z,81.40
2018-01-18T21:31:50.850Z,81.50
2018-01-18T21:34:21.363Z,81.10
2018-01-18T21:36:50.192Z,82.30
2018-01-18T21:39:18.604Z,81.10
2018-01-18T21:41:47.605Z,81.30
2018-01-18T21:44:21.027Z,82.00
2018-01-18T21:46:50.092Z,82.00
2018-01-18T21:49:18.514Z,81.70
2018-01-18T21:51:48.497Z,82.90
2018-01-18T21:54:19.566Z,82.80
2018-01-18T21:56:50.405Z,82.60
2018-01-18T21:59:22.740Z,82.40
2018-01-18T22:01:52.142Z,82.50
2018-01-18T22:04:26.667Z,82.50
2018-01-18T22:06:55.089Z,83.00
2018-01-18T22:09:23.757Z,83.50
2018-01-18T22:11:52.104Z,83.70
2018-01-18T22:14:21.098Z,83.90
2018-01-18T22:16:49.457Z,84.20
2018-01-18T22:19:18.738Z,84.60
2018-01-18T22:21:47.256Z,84.60
2018-01-18T22:24:15.748Z,85.40
2018-01-18T22:26:44.122Z,85.40
2018-01-18T22:29:12.595Z,85.70
2018-01-18T22:31:51.424Z,86.40
2018-01-18T22:34:19.901Z,86.40
2018-01-18T22:36:48.488Z,86.30
2018-01-18T22:39:16.993Z,86.70
2018-01-18T22:41:45.550Z,87.60
2018-01-18T22:44:14.382Z,88.40
2018-01-18T22:46:43.534Z,89.30
2018-01-18T22:49:15.478Z,89.20
2018-01-18T22:51:46.617Z,89.40
2018-01-18T22:54:29.322Z,90.80
2018-01-18T22:56:58.410Z,91.00
2018-01-18T22:59:26.766Z,91.00
2018-01-18T23:01:55.257Z,91.10
2018-01-18T23:04:25.147Z,91.50
2018-01-18T23:06:53.735Z,91.50
2018-01-18T23:09:22.183Z,91.40
2018-01-18T23:11:50.665Z,91.40
2018-01-18T23:14:19.146Z,91.30
2018-01-18T23:16:55.254Z,91.20
2018-01-18T23:19:25.216Z,90.90
2018-01-18T23:21:53.720Z,90.90
2018-01-18T23:24:22.183Z,91.00
2018-01-18T23:26:50.487Z,91.20
2018-01-18T23:29:19.960Z,91.20
2018-01-18T23:31:49.906Z,92.10
2018-01-18T23:34:19.282Z,92.30
2018-01-18T23:36:47.606Z,92.20
2018-01-18T23:39:17.574Z,92.70
2018-01-18T23:41:46.016Z,92.60
2018-01-18T23:44:15.047Z,93.20
2018-01-18T23:46:43.952Z,93.20
2018-01-18T23:49:12.522Z,92.80
2018-01-18T23:51:40.828Z,92.80
2018-01-18T23:54:09.282Z,93.00
2018-01-18T23:56:38.378Z,93.10
2018-01-18T23:59:08.620Z,93.00
